sensor_id;sensor_type;location;lat;lon;timestamp;temperature;humidity
13694;DHT22;6919;52.344;14.518;2023-06-04T00:00:21;8.80;99.90
13694;DHT22;6919;52.344;14.518;2023-06-04T00:02:49;8.80;1.00
13694;DHT22;6919;52.344;14.518;2023-06-04T00:05:19;8.70;1.00
13694;DHT22;6919;52.344;14.518;2023-06-04T00:07:51;8.60;99.90
13694;DHT22;6919;52.344;14.518;2023-06-04T00:10:20;8.50;1.00
13694;DHT22;6919;52.344;14.518;2023-06-04T00:12:48;8.50;99.90
13694;DHT22;6919;52.344;14.518;2023-06-04T00:15:17;8.40;1.00
13694;DHT22;6919;52.344;14.518;2023-06-04T00:17:45;8.40;1.00
13694;DHT22;6919;52.344;14.518;2023-06-04T00:20:13;8.30;1.00
13694;DHT22;6919;52.344;14.518;2023-06-04T00:22:43;8.20;99.90
13694;DHT22;6919;52.344;14.518;2023-06-04T00:25:12;8.20;99.90
13694;DHT22;6919;52.344;14.518;2023-06-04T00:27:40;8.10;1.00
13694;DHT22;6919;52.344;14.518;2023-06-04T00:30:09;8.20;1.00
13694;DHT22;6919;52.344;14.518;2023-06-04T00:32:38;8.20;1.00
13694;DHT22;6919;52.344;14.518;2023-06-04T00:35:07;8.20;1.00
13694;DHT22;6919;52.344;14.518;2023-06-04T00:37:37;8.30;99.90
13694;DHT22;6919;52.344;14.518;2023-06-04T00:40:07;8.20;99.90
13694;DHT22;6919;52.344;14.518;2023-06-04T00:42:36;8.10;1.00
13694;DHT22;6919;52.344;14.518;2023-06-04T00:45:06;8.10;1.00
13694;DHT22;6919;52.344;14.518;2023-06-04T00:47:36;7.90;1.00
13694;DHT22;6919;52.344;14.518;2023-06-04T00:50:06;7.90;99.90
13694;DHT22;6919;52.344;14.518;2023-06-04T00:52:35;7.80;1.00
13694;DHT22;6919;52.344;14.518;2023-06-04T00:55:09;7.70;71.40
13694;DHT22;6919;52.344;14.518;2023-06-04T00:57:37;7.70;1.00
13694;DHT22;6919;52.344;14.518;2023-06-04T01:00:07;7.70;99.90
13694;DHT22;6919;52.344;14.518;2023-06-04T01:02:38;7.70;1.00
13694;DHT22;6919;52.344;14.518;2023-06-04T01:05:16;7.60;99.90
13694;DHT22;6919;52.344;14.518;2023-06-04T01:07:50;7.60;1.00
13694;DHT22;6919;52.344;14.518;2023-06-04T01:10:21;7.60;1.00
13694;DHT22;6919;52.344;14.518;2023-06-04T01:12:50;7.60;1.00
13694;DHT22;6919;52.344;14.518;2023-06-04T01:15:18;7.70;1.00
13694;DHT22;6919;52.344;14.518;2023-06-04T01:17:51;7.60;99.90
13694;DHT22;6919;52.344;14.518;2023-06-04T01:20:29;7.50;1.00
13694;DHT22;6919;52.344;14.518;2023-06-04T01:23:25;7.40;1.00
13694;DHT22;6919;52.344;14.518;2023-06-04T01:26:03;7.40;1.00
13694;DHT22;6919;52.344;14.518;2023-06-04T01:28:34;7.30;1.00
13694;DHT22;6919;52.344;14.518;2023-06-04T01:31:03;7.30;99.90
13694;DHT22;6919;52.344;14.518;2023-06-04T01:33:34;7.30;1.00
13694;DHT22;6919;52.344;14.518;2023-06-04T01:36:03;7.30;1.00
13694;DHT22;6919;52.344;14.518;2023-06-04T01:38:33;7.30;1.00
13694;DHT22;6919;52.344;14.518;2023-06-04T01:41:02;7.30;1.00
13694;DHT22;6919;52.344;14.518;2023-06-04T01:43:31;7.40;1.00
13694;DHT22;6919;52.344;14.518;2023-06-04T01:46:01;7.40;1.00
13694;DHT22;6919;52.344;14.518;2023-06-04T01:48:30;7.40;99.90
13694;DHT22;6919;52.344;14.518;2023-06-04T01:51:00;7.40;99.90
13694;DHT22;6919;52.344;14.518;2023-06-04T01:53:29;7.50;99.90
13694;DHT22;6919;52.344;14.518;2023-06-04T01:55:57;7.40;1.00
13694;DHT22;6919;52.344;14.518;2023-06-04T01:58:27;7.30;1.00
13694;DHT22;6919;52.344;14.518;2023-06-04T02:00:56;7.30;1.00
13694;DHT22;6919;52.344;14.518;2023-06-04T02:03:27;7.30;1.00
13694;DHT22;6919;52.344;14.518;2023-06-04T02:05:59;7.20;99.90
13694;DHT22;6919;52.344;14.518;2023-06-04T02:08:27;7.00;1.00
13694;DHT22;6919;52.344;14.518;2023-06-04T02:10:57;7.00;99.90
13694;DHT22;6919;52.344;14.518;2023-06-04T02:13:26;6.90;1.00
13694;DHT22;6919;52.344;14.518;2023-06-04T02:15:55;6.90;1.00
13694;DHT22;6919;52.344;14.518;2023-06-04T02:18:23;6.80;99.90
13694;DHT22;6919;52.344;14.518;2023-06-04T02:20:52;6.80;1.00
13694;DHT22;6919;52.344;14.518;2023-06-04T02:23:20;6.80;32.40
13694;DHT22;6919;52.344;14.518;2023-06-04T02:25:48;6.70;32.10
13694;DHT22;6919;52.344;14.518;2023-06-04T02:28:17;6.70;99.90
13694;DHT22;6919;52.344;14.518;2023-06-04T02:30:46;6.70;99.90
13694;DHT22;6919;52.344;14.518;2023-06-04T02:33:15;6.70;1.00
13694;DHT22;6919;52.344;14.518;2023-06-04T02:35:43;6.70;1.00
13694;DHT22;6919;52.344;14.518;2023-06-04T02:38:12;6.70;99.90
13694;DHT22;6919;52.344;14.518;2023-06-04T02:40:41;6.70;99.90
13694;DHT22;6919;52.344;14.518;2023-06-04T02:43:10;6.70;99.90
13694;DHT22;6919;52.344;14.518;2023-06-04T02:45:38;6.70;99.90
13694;DHT22;6919;52.344;14.518;2023-06-04T02:48:08;6.70;1.00
13694;DHT22;6919;52.344;14.518;2023-06-04T02:50:36;6.60;1.00
13694;DHT22;6919;52.344;14.518;2023-06-04T02:53:04;6.60;1.00
13694;DHT22;6919;52.344;14.518;2023-06-04T02:55:33;6.60;1.00
13694;DHT22;6919;52.344;14.518;2023-06-04T02:58:02;6.50;1.00
13694;DHT22;6919;52.344;14.518;2023-06-04T03:00:31;6.50;1.00
13694;DHT22;6919;52.344;14.518;2023-06-04T03:02:59;6.50;1.00
13694;DHT22;6919;52.344;14.518;2023-06-04T03:05:30;6.50;1.00
13694;DHT22;6919;52.344;14.518;2023-06-04T03:08:01;6.50;1.00
13694;DHT22;6919;52.344;14.518;2023-06-04T03:10:30;6.50;1.00
13694;DHT22;6919;52.344;14.518;2023-06-04T03:12:59;6.50;99.90
13694;DHT22;6919;52.344;14.518;2023-06-04T03:15:27;6.50;99.90
13694;DHT22;6919;52.344;14.518;2023-06-04T03:17:56;6.60;1.00
13694;DHT22;6919;52.344;14.518;2023-06-04T03:20:24;6.60;1.00
13694;DHT22;6919;52.344;14.518;2023-06-04T03:22:54;6.60;1.00
13694;DHT22;6919;52.344;14.518;2023-06-04T03:25:23;6.50;1.00
13694;DHT22;6919;52.344;14.518;2023-06-04T03:27:51;6.70;1.00
13694;DHT22;6919;52.344;14.518;2023-06-04T03:30:19;6.70;1.00
13694;DHT22;6919;52.344;14.518;2023-06-04T03:32:48;6.70;1.00
13694;DHT22;6919;52.344;14.518;2023-06-04T03:35:16;6.80;1.00
13694;DHT22;6919;52.344;14.518;2023-06-04T03:37:45;6.90;1.00
13694;DHT22;6919;52.344;14.518;2023-06-04T03:40:14;7.00;99.90
13694;DHT22;6919;52.344;14.518;2023-06-04T03:42:43;7.10;99.90
13694;DHT22;6919;52.344;14.518;2023-06-04T03:45:11;7.20;99.90
13694;DHT22;6919;52.344;14.518;2023-06-04T03:47:40;7.30;99.90
13694;DHT22;6919;52.344;14.518;2023-06-04T03:50:09;7.50;1.00
13694;DHT22;6919;52.344;14.518;2023-06-04T03:52:38;7.60;1.00
13694;DHT22;6919;52.344;14.518;2023-06-04T03:55:06;7.70;99.90
13694;DHT22;6919;52.344;14.518;2023-06-04T03:57:36;7.80;99.90
13694;DHT22;6919;52.344;14.518;2023-06-04T04:00:09;7.90;99.90
13694;DHT22;6919;52.344;14.518;2023-06-04T04:02:39;8.10;1.00
13694;DHT22;6919;52.344;14.518;2023-06-04T04:05:08;8.30;99.90
13694;DHT22;6919;52.344;14.518;2023-06-04T04:07:38;8.40;1.00
13694;DHT22;6919;52.344;14.518;2023-06-04T04:10:07;8.60;1.00
13694;DHT22;6919;52.344;14.518;2023-06-04T04:12:38;8.80;63.50
13694;DHT22;6919;52.344;14.518;2023-06-04T04:15:07;8.90;99.90
13694;DHT22;6919;52.344;14.518;2023-06-04T04:17:36;9.10;99.90
13694;DHT22;6919;52.344;14.518;2023-06-04T04:20:05;9.40;99.90
13694;DHT22;6919;52.344;14.518;2023-06-04T04:22:33;9.50;99.90
13694;DHT22;6919;52.344;14.518;2023-06-04T04:25:02;9.60;99.90
13694;DHT22;6919;52.344;14.518;2023-06-04T04:27:30;9.80;99.90
13694;DHT22;6919;52.344;14.518;2023-06-04T04:30:03;10.10;99.90
13694;DHT22;6919;52.344;14.518;2023-06-04T04:32:32;10.20;99.90
13694;DHT22;6919;52.344;14.518;2023-06-04T04:35:00;10.30;99.90
13694;DHT22;6919;52.344;14.518;2023-06-04T04:37:30;10.50;99.90
13694;DHT22;6919;52.344;14.518;2023-06-04T04:39:58;10.60;99.90
13694;DHT22;6919;52.344;14.518;2023-06-04T04:42:27;10.90;99.90
13694;DHT22;6919;52.344;14.518;2023-06-04T04:44:55;11.30;99.90
13694;DHT22;6919;52.344;14.518;2023-06-04T04:47:25;11.70;99.90
13694;DHT22;6919;52.344;14.518;2023-06-04T04:49:53;12.10;99.90
13694;DHT22;6919;52.344;14.518;2023-06-04T04:52:21;12.50;99.90
13694;DHT22;6919;52.344;14.518;2023-06-04T04:54:49;12.70;99.90
13694;DHT22;6919;52.344;14.518;2023-06-04T04:57:22;12.60;99.90
13694;DHT22;6919;52.344;14.518;2023-06-04T04:59:50;12.50;99.90
13694;DHT22;6919;52.344;14.518;2023-06-04T05:02:18;12.60;99.90
13694;DHT22;6919;52.344;14.518;2023-06-04T05:04:48;12.80;99.90
13694;DHT22;6919;52.344;14.518;2023-06-04T05:07:16;12.90;99.90
13694;DHT22;6919;52.344;14.518;2023-06-04T05:09:46;13.10;99.90
13694;DHT22;6919;52.344;14.518;2023-06-04T05:12:14;13.20;99.90
13694;DHT22;6919;52.344;14.518;2023-06-04T05:14:43;13.30;99.50
13694;DHT22;6919;52.344;14.518;2023-06-04T05:17:11;13.40;99.90
13694;DHT22;6919;52.344;14.518;2023-06-04T05:19:39;13.70;97.70
13694;DHT22;6919;52.344;14.518;2023-06-04T05:22:10;13.80;97.00
13694;DHT22;6919;52.344;14.518;2023-06-04T05:24:39;14.20;91.50
13694;DHT22;6919;52.344;14.518;2023-06-04T05:27:07;14.40;92.20
13694;DHT22;6919;52.344;14.518;2023-06-04T05:29:36;14.50;92.50
13694;DHT22;6919;52.344;14.518;2023-06-04T05:32:04;15.00;90.50
13694;DHT22;6919;52.344;14.518;2023-06-04T05:34:33;15.40;82.60
13694;DHT22;6919;52.344;14.518;2023-06-04T05:37:03;15.20;79.90
13694;DHT22;6919;52.344;14.518;2023-06-04T05:39:39;15.20;76.80
13694;DHT22;6919;52.344;14.518;2023-06-04T05:42:07;15.50;79.60
13694;DHT22;6919;52.344;14.518;2023-06-04T05:44:36;15.60;75.80
13694;DHT22;6919;52.344;14.518;2023-06-04T05:47:04;15.70;78.60
13694;DHT22;6919;52.344;14.518;2023-06-04T05:49:34;15.90;73.90
13694;DHT22;6919;52.344;14.518;2023-06-04T05:52:03;16.00;76.10
13694;DHT22;6919;52.344;14.518;2023-06-04T05:54:31;16.50;71.00
13694;DHT22;6919;52.344;14.518;2023-06-04T05:57:01;16.50;70.90
13694;DHT22;6919;52.344;14.518;2023-06-04T05:59:30;16.50;65.30
13694;DHT22;6919;52.344;14.518;2023-06-04T06:01:58;16.60;60.40
13694;DHT22;6919;52.344;14.518;2023-06-04T06:04:27;17.30;55.10
13694;DHT22;6919;52.344;14.518;2023-06-04T06:06:55;17.30;54.20
13694;DHT22;6919;52.344;14.518;2023-06-04T06:09:24;17.40;52.50
13694;DHT22;6919;52.344;14.518;2023-06-04T06:11:52;17.40;49.90
13694;DHT22;6919;52.344;14.518;2023-06-04T06:14:22;17.60;52.30
13694;DHT22;6919;52.344;14.518;2023-06-04T06:16:50;17.50;50.60
13694;DHT22;6919;52.344;14.518;2023-06-04T06:19:19;17.70;52.40
13694;DHT22;6919;52.344;14.518;2023-06-04T06:21:48;18.00;50.30
13694;DHT22;6919;52.344;14.518;2023-06-04T06:24:16;18.10;49.70
13694;DHT22;6919;52.344;14.518;2023-06-04T06:26:44;18.10;49.70
13694;DHT22;6919;52.344;14.518;2023-06-04T06:29:13;18.40;49.20
13694;DHT22;6919;52.344;14.518;2023-06-04T06:31:42;18.60;47.30
13694;DHT22;6919;52.344;14.518;2023-06-04T06:34:11;19.10;43.50
13694;DHT22;6919;52.344;14.518;2023-06-04T06:36:39;19.00;42.20
13694;DHT22;6919;52.344;14.518;2023-06-04T06:39:07;19.40;41.90
13694;DHT22;6919;52.344;14.518;2023-06-04T06:41:37;19.50;40.30
13694;DHT22;6919;52.344;14.518;2023-06-04T06:44:06;19.90;41.30
13694;DHT22;6919;52.344;14.518;2023-06-04T06:46:34;20.20;37.30
13694;DHT22;6919;52.344;14.518;2023-06-04T06:49:04;20.20;39.10
13694;DHT22;6919;52.344;14.518;2023-06-04T06:51:32;20.40;37.80
13694;DHT22;6919;52.344;14.518;2023-06-04T06:54:00;20.20;36.50
13694;DHT22;6919;52.344;14.518;2023-06-04T06:56:28;19.90;35.90
13694;DHT22;6919;52.344;14.518;2023-06-04T06:58:57;19.70;36.00
13694;DHT22;6919;52.344;14.518;2023-06-04T07:01:25;19.70;34.80
13694;DHT22;6919;52.344;14.518;2023-06-04T07:03:54;19.70;37.30
13694;DHT22;6919;52.344;14.518;2023-06-04T07:06:23;20.00;36.80
13694;DHT22;6919;52.344;14.518;2023-06-04T07:08:51;20.20;33.60
13694;DHT22;6919;52.344;14.518;2023-06-04T07:11:21;20.20;32.90
13694;DHT22;6919;52.344;14.518;2023-06-04T07:13:49;20.70;30.50
13694;DHT22;6919;52.344;14.518;2023-06-04T07:16:18;20.40;29.00
13694;DHT22;6919;52.344;14.518;2023-06-04T07:18:48;20.60;28.50
13694;DHT22;6919;52.344;14.518;2023-06-04T07:21:17;20.60;31.30
13694;DHT22;6919;52.344;14.518;2023-06-04T07:23:48;20.60;29.80
13694;DHT22;6919;52.344;14.518;2023-06-04T07:26:18;20.70;29.60
13694;DHT22;6919;52.344;14.518;2023-06-04T07:28:47;20.40;31.60
13694;DHT22;6919;52.344;14.518;2023-06-04T07:31:15;20.50;33.60
13694;DHT22;6919;52.344;14.518;2023-06-04T07:33:44;20.80;33.20
13694;DHT22;6919;52.344;14.518;2023-06-04T07:36:13;21.30;28.50
13694;DHT22;6919;52.344;14.518;2023-06-04T07:38:42;21.40;27.20
13694;DHT22;6919;52.344;14.518;2023-06-04T07:41:11;21.30;27.70
13694;DHT22;6919;52.344;14.518;2023-06-04T07:43:40;21.50;29.60
13694;DHT22;6919;52.344;14.518;2023-06-04T07:46:10;21.60;25.60
13694;DHT22;6919;52.344;14.518;2023-06-04T07:48:38;21.60;23.90
13694;DHT22;6919;52.344;14.518;2023-06-04T07:51:07;21.50;24.40
13694;DHT22;6919;52.344;14.518;2023-06-04T07:53:35;21.40;22.90
13694;DHT22;6919;52.344;14.518;2023-06-04T07:56:05;21.20;25.30
13694;DHT22;6919;52.344;14.518;2023-06-04T07:58:35;21.30;26.20
13694;DHT22;6919;52.344;14.518;2023-06-04T08:01:03;21.80;23.80
13694;DHT22;6919;52.344;14.518;2023-06-04T08:03:31;22.00;26.10
13694;DHT22;6919;52.344;14.518;2023-06-04T08:06:00;22.50;22.50
13694;DHT22;6919;52.344;14.518;2023-06-04T08:08:30;22.30;20.00
13694;DHT22;6919;52.344;14.518;2023-06-04T08:11:00;22.50;21.00
13694;DHT22;6919;52.344;14.518;2023-06-04T08:13:29;22.20;22.10
13694;DHT22;6919;52.344;14.518;2023-06-04T08:15:59;22.30;23.40
13694;DHT22;6919;52.344;14.518;2023-06-04T08:18:27;22.20;21.70
13694;DHT22;6919;52.344;14.518;2023-06-04T08:20:55;22.50;23.20
13694;DHT22;6919;52.344;14.518;2023-06-04T08:23:24;22.40;21.80
13694;DHT22;6919;52.344;14.518;2023-06-04T08:25:52;22.10;22.90
13694;DHT22;6919;52.344;14.518;2023-06-04T08:28:21;21.60;23.40
13694;DHT22;6919;52.344;14.518;2023-06-04T08:30:49;21.90;23.90
13694;DHT22;6919;52.344;14.518;2023-06-04T08:33:19;22.20;25.20
13694;DHT22;6919;52.344;14.518;2023-06-04T08:35:49;22.00;24.70
13694;DHT22;6919;52.344;14.518;2023-06-04T08:38:18;21.80;24.90
13694;DHT22;6919;52.344;14.518;2023-06-04T08:40:51;22.30;24.40
13694;DHT22;6919;52.344;14.518;2023-06-04T08:43:21;22.50;24.30
13694;DHT22;6919;52.344;14.518;2023-06-04T08:45:50;22.40;22.50
13694;DHT22;6919;52.344;14.518;2023-06-04T08:48:22;22.30;23.80
13694;DHT22;6919;52.344;14.518;2023-06-04T08:50:53;22.70;24.40
13694;DHT22;6919;52.344;14.518;2023-06-04T08:53:23;23.00;23.60
13694;DHT22;6919;52.344;14.518;2023-06-04T08:55:53;22.90;23.10
13694;DHT22;6919;52.344;14.518;2023-06-04T08:58:23;22.70;24.30
13694;DHT22;6919;52.344;14.518;2023-06-04T09:00:53;23.00;22.00
13694;DHT22;6919;52.344;14.518;2023-06-04T09:03:23;22.60;22.50
13694;DHT22;6919;52.344;14.518;2023-06-04T09:05:54;22.60;20.50
13694;DHT22;6919;52.344;14.518;2023-06-04T09:08:24;22.40;22.90
13694;DHT22;6919;52.344;14.518;2023-06-04T09:10:54;22.10;22.10
13694;DHT22;6919;52.344;14.518;2023-06-04T09:13:27;22.60;23.10
13694;DHT22;6919;52.344;14.518;2023-06-04T09:15:59;22.70;22.90
13694;DHT22;6919;52.344;14.518;2023-06-04T09:18:29;23.00;19.90
13694;DHT22;6919;52.344;14.518;2023-06-04T09:21:02;23.40;18.60
13694;DHT22;6919;52.344;14.518;2023-06-04T09:23:34;23.20;18.60
13694;DHT22;6919;52.344;14.518;2023-06-04T09:26:12;23.10;18.30
13694;DHT22;6919;52.344;14.518;2023-06-04T09:28:41;23.30;18.50
13694;DHT22;6919;52.344;14.518;2023-06-04T09:31:10;22.80;19.10
13694;DHT22;6919;52.344;14.518;2023-06-04T09:33:47;22.90;19.60
13694;DHT22;6919;52.344;14.518;2023-06-04T09:36:17;23.00;18.90
13694;DHT22;6919;52.344;14.518;2023-06-04T09:38:45;22.70;19.10
13694;DHT22;6919;52.344;14.518;2023-06-04T09:41:16;22.60;17.40
13694;DHT22;6919;52.344;14.518;2023-06-04T09:43:46;22.00;20.80
13694;DHT22;6919;52.344;14.518;2023-06-04T09:46:16;22.40;21.80
13694;DHT22;6919;52.344;14.518;2023-06-04T09:48:46;22.70;20.30
13694;DHT22;6919;52.344;14.518;2023-06-04T09:51:15;23.00;19.70
13694;DHT22;6919;52.344;14.518;2023-06-04T09:53:53;22.80;19.00
13694;DHT22;6919;52.344;14.518;2023-06-04T09:56:23;22.80;20.90
13694;DHT22;6919;52.344;14.518;2023-06-04T09:58:57;22.60;19.70
13694;DHT22;6919;52.344;14.518;2023-06-04T10:01:29;22.60;19.50
13694;DHT22;6919;52.344;14.518;2023-06-04T10:04:03;22.70;19.90
13694;DHT22;6919;52.344;14.518;2023-06-04T10:06:36;22.60;20.50
13694;DHT22;6919;52.344;14.518;2023-06-04T10:09:06;22.70;20.90
13694;DHT22;6919;52.344;14.518;2023-06-04T10:11:39;23.00;21.50
13694;DHT22;6919;52.344;14.518;2023-06-04T10:14:19;23.10;21.10
13694;DHT22;6919;52.344;14.518;2023-06-04T10:16:50;23.30;19.10
13694;DHT22;6919;52.344;14.518;2023-06-04T10:19:21;23.20;19.40
13694;DHT22;6919;52.344;14.518;2023-06-04T10:21:50;23.20;21.00
13694;DHT22;6919;52.344;14.518;2023-06-04T10:24:20;23.60;20.20
13694;DHT22;6919;52.344;14.518;2023-06-04T10:26:51;23.60;21.10
13694;DHT22;6919;52.344;14.518;2023-06-04T10:29:23;23.70;19.30
13694;DHT22;6919;52.344;14.518;2023-06-04T10:31:54;23.70;19.90
13694;DHT22;6919;52.344;14.518;2023-06-04T10:34:26;23.40;19.40
13694;DHT22;6919;52.344;14.518;2023-06-04T10:36:55;23.10;19.00
13694;DHT22;6919;52.344;14.518;2023-06-04T10:39:26;23.10;21.10
13694;DHT22;6919;52.344;14.518;2023-06-04T10:41:59;23.50;19.80
13694;DHT22;6919;52.344;14.518;2023-06-04T10:44:30;23.60;19.60
13694;DHT22;6919;52.344;14.518;2023-06-04T10:46:58;23.30;18.30
13694;DHT22;6919;52.344;14.518;2023-06-04T10:49:29;23.10;19.80
13694;DHT22;6919;52.344;14.518;2023-06-04T10:52:09;23.10;20.30
13694;DHT22;6919;52.344;14.518;2023-06-04T10:54:39;23.50;20.10
13694;DHT22;6919;52.344;14.518;2023-06-04T10:57:10;23.60;19.80
13694;DHT22;6919;52.344;14.518;2023-06-04T10:59:40;23.20;17.90
13694;DHT22;6919;52.344;14.518;2023-06-04T11:02:09;23.10;18.70
13694;DHT22;6919;52.344;14.518;2023-06-04T11:04:38;23.30;19.30
13694;DHT22;6919;52.344;14.518;2023-06-04T11:07:09;23.50;20.60
13694;DHT22;6919;52.344;14.518;2023-06-04T11:09:49;23.60;19.60
13694;DHT22;6919;52.344;14.518;2023-06-04T11:12:18;23.50;17.80
13694;DHT22;6919;52.344;14.518;2023-06-04T11:14:54;23.30;18.00
13694;DHT22;6919;52.344;14.518;2023-06-04T11:17:23;23.30;18.90
13694;DHT22;6919;52.344;14.518;2023-06-04T11:19:52;23.60;19.10
13694;DHT22;6919;52.344;14.518;2023-06-04T11:22:22;23.80;19.50
13694;DHT22;6919;52.344;14.518;2023-06-04T11:24:56;24.00;18.10
13694;DHT22;6919;52.344;14.518;2023-06-04T11:27:25;24.20;18.40
13694;DHT22;6919;52.344;14.518;2023-06-04T11:30:01;24.30;21.40
13694;DHT22;6919;52.344;14.518;2023-06-04T11:32:29;23.80;17.70
13694;DHT22;6919;52.344;14.518;2023-06-04T11:35:06;24.00;18.20
13694;DHT22;6919;52.344;14.518;2023-06-04T11:37:35;24.40;19.50
13694;DHT22;6919;52.344;14.518;2023-06-04T11:40:14;24.30;19.60
13694;DHT22;6919;52.344;14.518;2023-06-04T11:42:44;24.80;19.50
13694;DHT22;6919;52.344;14.518;2023-06-04T11:45:14;24.60;19.00
13694;DHT22;6919;52.344;14.518;2023-06-04T11:47:45;24.60;17.90
13694;DHT22;6919;52.344;14.518;2023-06-04T11:50:16;24.80;18.10
13694;DHT22;6919;52.344;14.518;2023-06-04T11:52:45;25.10;17.80
13694;DHT22;6919;52.344;14.518;2023-06-04T11:55:15;24.70;17.10
13694;DHT22;6919;52.344;14.518;2023-06-04T11:57:48;24.40;18.00
13694;DHT22;6919;52.344;14.518;2023-06-04T12:00:18;24.90;19.90
13694;DHT22;6919;52.344;14.518;2023-06-04T12:02:51;24.90;17.70
13694;DHT22;6919;52.344;14.518;2023-06-04T12:05:28;24.50;17.00
13694;DHT22;6919;52.344;14.518;2023-06-04T12:08:05;24.70;16.40
13694;DHT22;6919;52.344;14.518;2023-06-04T12:10:39;24.90;17.80
13694;DHT22;6919;52.344;14.518;2023-06-04T12:13:08;25.10;17.30
13694;DHT22;6919;52.344;14.518;2023-06-04T12:15:38;25.20;19.00
13694;DHT22;6919;52.344;14.518;2023-06-04T12:18:07;25.20;16.70
13694;DHT22;6919;52.344;14.518;2023-06-04T12:20:39;25.00;17.80
13694;DHT22;6919;52.344;14.518;2023-06-04T12:23:08;25.00;17.50
13694;DHT22;6919;52.344;14.518;2023-06-04T12:25:50;24.80;17.00
13694;DHT22;6919;52.344;14.518;2023-06-04T12:28:18;25.10;17.90
13694;DHT22;6919;52.344;14.518;2023-06-04T12:30:47;25.30;17.30
13694;DHT22;6919;52.344;14.518;2023-06-04T12:33:16;25.30;16.90
13694;DHT22;6919;52.344;14.518;2023-06-04T12:35:45;25.40;17.00
13694;DHT22;6919;52.344;14.518;2023-06-04T12:38:14;25.10;17.80
13694;DHT22;6919;52.344;14.518;2023-06-04T12:40:42;25.20;16.70
13694;DHT22;6919;52.344;14.518;2023-06-04T12:43:10;25.10;16.50
13694;DHT22;6919;52.344;14.518;2023-06-04T12:45:39;25.60;17.30
13694;DHT22;6919;52.344;14.518;2023-06-04T12:48:07;26.10;17.80
13694;DHT22;6919;52.344;14.518;2023-06-04T12:50:35;25.90;15.20
13694;DHT22;6919;52.344;14.518;2023-06-04T12:53:05;25.90;16.50
13694;DHT22;6919;52.344;14.518;2023-06-04T12:55:33;26.40;17.80
13694;DHT22;6919;52.344;14.518;2023-06-04T12:58:01;26.60;15.80
13694;DHT22;6919;52.344;14.518;2023-06-04T13:00:30;27.70;15.70
13694;DHT22;6919;52.344;14.518;2023-06-04T13:02:58;28.70;15.40
13694;DHT22;6919;52.344;14.518;2023-06-04T13:05:26;29.40;13.90
13694;DHT22;6919;52.344;14.518;2023-06-04T13:07:55;28.90;14.00
13694;DHT22;6919;52.344;14.518;2023-06-04T13:10:24;28.90;12.90
13694;DHT22;6919;52.344;14.518;2023-06-04T13:12:53;29.30;12.80
13694;DHT22;6919;52.344;14.518;2023-06-04T13:15:21;29.60;12.60
13694;DHT22;6919;52.344;14.518;2023-06-04T13:17:50;29.50;1.00
13694;DHT22;6919;52.344;14.518;2023-06-04T13:20:18;30.30;1.00
13694;DHT22;6919;52.344;14.518;2023-06-04T13:22:46;30.20;1.00
13694;DHT22;6919;52.344;14.518;2023-06-04T13:25:15;30.90;1.00
13694;DHT22;6919;52.344;14.518;2023-06-04T13:27:44;30.40;1.00
13694;DHT22;6919;52.344;14.518;2023-06-04T13:30:13;30.20;1.00
13694;DHT22;6919;52.344;14.518;2023-06-04T13:32:42;30.60;1.00
13694;DHT22;6919;52.344;14.518;2023-06-04T13:35:10;30.50;1.00
13694;DHT22;6919;52.344;14.518;2023-06-04T13:37:39;29.80;1.00
13694;DHT22;6919;52.344;14.518;2023-06-04T13:40:08;29.30;1.00
13694;DHT22;6919;52.344;14.518;2023-06-04T13:42:37;30.00;1.00
13694;DHT22;6919;52.344;14.518;2023-06-04T13:45:07;29.80;1.00
13694;DHT22;6919;52.344;14.518;2023-06-04T13:47:36;30.40;1.00
13694;DHT22;6919;52.344;14.518;2023-06-04T13:50:06;30.50;1.00
13694;DHT22;6919;52.344;14.518;2023-06-04T13:52:35;30.00;1.00
13694;DHT22;6919;52.344;14.518;2023-06-04T13:55:03;30.60;1.00
13694;DHT22;6919;52.344;14.518;2023-06-04T13:57:34;31.00;1.00
13694;DHT22;6919;52.344;14.518;2023-06-04T14:00:03;30.60;1.00
13694;DHT22;6919;52.344;14.518;2023-06-04T14:02:35;30.90;1.00
13694;DHT22;6919;52.344;14.518;2023-06-04T14:05:05;30.50;1.00
13694;DHT22;6919;52.344;14.518;2023-06-04T14:07:33;30.60;1.00
13694;DHT22;6919;52.344;14.518;2023-06-04T14:10:02;30.60;1.00
13694;DHT22;6919;52.344;14.518;2023-06-04T14:12:31;30.70;1.00
13694;DHT22;6919;52.344;14.518;2023-06-04T14:14:59;31.40;1.00
13694;DHT22;6919;52.344;14.518;2023-06-04T14:17:27;31.10;1.00
13694;DHT22;6919;52.344;14.518;2023-06-04T14:19:57;30.80;1.00
13694;DHT22;6919;52.344;14.518;2023-06-04T14:22:25;30.10;1.00
13694;DHT22;6919;52.344;14.518;2023-06-04T14:24:53;29.60;1.00
13694;DHT22;6919;52.344;14.518;2023-06-04T14:27:22;30.20;1.00
13694;DHT22;6919;52.344;14.518;2023-06-04T14:29:50;30.30;1.00
13694;DHT22;6919;52.344;14.518;2023-06-04T14:32:18;30.10;1.00
13694;DHT22;6919;52.344;14.518;2023-06-04T14:34:47;29.70;1.00
13694;DHT22;6919;52.344;14.518;2023-06-04T14:37:16;30.00;1.00
13694;DHT22;6919;52.344;14.518;2023-06-04T14:39:46;29.70;1.00
13694;DHT22;6919;52.344;14.518;2023-06-04T14:42:15;29.90;1.00
13694;DHT22;6919;52.344;14.518;2023-06-04T14:44:44;30.30;1.00
13694;DHT22;6919;52.344;14.518;2023-06-04T14:47:13;30.20;1.00
13694;DHT22;6919;52.344;14.518;2023-06-04T14:49:42;30.40;1.00
13694;DHT22;6919;52.344;14.518;2023-06-04T14:52:10;29.90;1.00
13694;DHT22;6919;52.344;14.518;2023-06-04T14:54:40;30.30;1.00
13694;DHT22;6919;52.344;14.518;2023-06-04T14:57:08;30.30;1.00
13694;DHT22;6919;52.344;14.518;2023-06-04T14:59:37;30.80;1.00
13694;DHT22;6919;52.344;14.518;2023-06-04T15:02:05;30.50;1.00
13694;DHT22;6919;52.344;14.518;2023-06-04T15:04:34;30.40;1.00
13694;DHT22;6919;52.344;14.518;2023-06-04T15:07:03;30.00;1.00
13694;DHT22;6919;52.344;14.518;2023-06-04T15:09:32;29.10;1.00
13694;DHT22;6919;52.344;14.518;2023-06-04T15:12:01;28.60;1.00
13694;DHT22;6919;52.344;14.518;2023-06-04T15:14:31;28.20;1.00
13694;DHT22;6919;52.344;14.518;2023-06-04T15:16:59;27.70;1.00
13694;DHT22;6919;52.344;14.518;2023-06-04T15:19:27;27.60;1.00
13694;DHT22;6919;52.344;14.518;2023-06-04T15:21:56;27.30;1.00
13694;DHT22;6919;52.344;14.518;2023-06-04T15:24:24;27.00;1.00
13694;DHT22;6919;52.344;14.518;2023-06-04T15:26:53;26.80;1.00
13694;DHT22;6919;52.344;14.518;2023-06-04T15:29:23;26.50;1.00
13694;DHT22;6919;52.344;14.518;2023-06-04T15:31:52;26.50;1.00
13694;DHT22;6919;52.344;14.518;2023-06-04T15:34:21;26.60;1.00
13694;DHT22;6919;52.344;14.518;2023-06-04T15:36:49;27.10;1.00
13694;DHT22;6919;52.344;14.518;2023-06-04T15:39:18;27.00;1.00
13694;DHT22;6919;52.344;14.518;2023-06-04T15:41:46;26.70;1.00
13694;DHT22;6919;52.344;14.518;2023-06-04T15:44:15;26.50;1.00
13694;DHT22;6919;52.344;14.518;2023-06-04T15:46:44;26.30;1.00
13694;DHT22;6919;52.344;14.518;2023-06-04T15:49:12;25.90;1.00
13694;DHT22;6919;52.344;14.518;2023-06-04T15:51:42;25.80;1.00
13694;DHT22;6919;52.344;14.518;2023-06-04T15:54:10;25.80;1.00